Time;durP1;ratioP1;P1;durP2;ratioP2;P2;SDS_P1;SDS_P2;PMS_P1;PMS_P2;Temp;Humidity;BMP_temperature;BMP_pressure;BME280_temperature;BME280_humidity;BME280_pressure;Samples;Min_cycle;Max_cycle;Signal;HPM_P1;HPM_P2
2021/12/19 00:01:30;;;;;;;67.27;29.10;;;6.00;99.90;;;;;;5032643;28;20993;-79
2021/12/19 00:09:10;;;;;;;65.53;27.95;;;6.10;99.90;;;;;;5033254;28;20247;-79
2021/12/19 00:11:36;;;;;;;63.35;25.90;;;5.90;99.90;;;;;;5032935;28;20614;-80
2021/12/19 00:14:02;;;;;;;63.03;29.20;;;5.90;99.90;;;;;;5033198;28;20211;-79
2021/12/19 00:16:28;;;;;;;61.38;25.55;;;5.90;99.90;;;;;;5015306;28;20462;-81
2021/12/19 00:18:54;;;;;;;68.03;28.40;;;6.00;99.90;;;;;;5033100;28;20643;-81
2021/12/19 00:21:21;;;;;;;69.10;28.25;;;5.90;99.90;;;;;;5032575;28;20222;-80
2021/12/19 00:23:49;;;;;;;69.90;27.20;;;6.00;99.90;;;;;;5032939;28;20170;-80
2021/12/19 00:26:16;;;;;;;73.10;31.30;;;6.00;99.90;;;;;;5033030;28;20254;-82
2021/12/19 00:28:42;;;;;;;65.13;28.17;;;6.10;99.90;;;;;;5033118;28;20173;-80
2021/12/19 00:31:09;;;;;;;71.03;29.50;;;6.00;99.90;;;;;;5031210;28;20190;-80
2021/12/19 00:33:36;;;;;;;67.97;28.25;;;6.00;99.90;;;;;;5033091;28;20175;-80
2021/12/19 00:36:02;;;;;;;73.68;29.50;;;6.00;99.90;;;;;;5032925;28;20206;-80
2021/12/19 00:38:28;;;;;;;64.82;27.95;;;6.00;99.90;;;;;;5032810;28;20188;-81
2021/12/19 00:40:54;;;;;;;74.07;27.40;;;6.00;99.90;;;;;;5032291;28;20286;-81
2021/12/19 00:43:32;;;;;;;63.08;28.55;;;5.90;99.90;;;;;;5032600;28;20600;-81
2021/12/19 00:46:05;;;;;;;68.10;28.25;;;6.00;99.90;;;;;;5032700;28;20250;-81
2021/12/19 00:48:30;;;;;;;65.97;27.45;;;6.00;99.90;;;;;;5032876;28;20221;-80
2021/12/19 00:50:56;;;;;;;60.47;26.10;;;6.00;99.90;;;;;;5032302;28;20198;-80
2021/12/19 00:53:22;;;;;;;66.70;27.77;;;6.00;99.90;;;;;;5032496;28;20706;-80
2021/12/19 00:55:47;;;;;;;77.07;27.30;;;6.00;99.90;;;;;;5032612;28;20187;-80
2021/12/19 00:58:13;;;;;;;66.00;28.50;;;6.10;99.90;;;;;;5032800;28;20183;-80
2021/12/19 01:00:39;;;;;;;68.67;27.03;;;6.10;99.90;;;;;;5031018;28;20210;-80
2021/12/19 01:03:05;;;;;;;63.60;28.50;;;6.10;99.90;;;;;;5032512;28;20191;-81
2021/12/19 01:05:34;;;;;;;66.35;29.30;;;6.10;99.90;;;;;;5032627;28;20218;-80
2021/12/19 01:07:59;;;;;;;66.10;27.15;;;6.10;99.90;;;;;;5036294;28;20297;-80
2021/12/19 01:10:25;;;;;;;64.93;26.90;;;6.00;99.90;;;;;;5035746;28;20284;-81
2021/12/19 01:12:51;;;;;;;62.07;25.90;;;6.00;99.90;;;;;;5036074;28;20240;-80
2021/12/19 01:15:18;;;;;;;63.90;27.37;;;6.00;99.90;;;;;;5035939;28;20940;-80
2021/12/19 01:17:44;;;;;;;71.97;26.52;;;6.00;99.90;;;;;;5035800;28;20472;-80
2021/12/19 01:20:14;;;;;;;58.45;25.67;;;6.00;99.90;;;;;;5034268;28;20205;-81
2021/12/19 01:22:41;;;;;;;58.70;25.77;;;6.00;99.90;;;;;;5035873;28;20189;-80
2021/12/19 01:25:07;;;;;;;55.45;23.95;;;6.10;99.90;;;;;;5035877;28;20181;-80
2021/12/19 01:27:32;;;;;;;67.30;29.17;;;6.00;99.90;;;;;;5035662;28;20174;-80
2021/12/19 01:29:58;;;;;;;68.10;25.90;;;5.90;99.90;;;;;;5034127;28;20512;-80
2021/12/19 01:32:23;;;;;;;59.30;25.77;;;5.90;99.90;;;;;;5035624;28;20292;-81
2021/12/19 01:34:49;;;;;;;62.87;26.07;;;6.00;99.90;;;;;;5034449;28;20186;-80
2021/12/19 01:37:15;;;;;;;70.30;27.80;;;5.90;99.90;;;;;;5017803;28;20194;-79
2021/12/19 01:39:41;;;;;;;59.93;26.07;;;6.00;99.90;;;;;;5033701;28;20187;-79
2021/12/19 01:42:11;;;;;;;62.67;25.92;;;5.90;99.90;;;;;;5035479;28;20222;-79
2021/12/19 01:44:37;;;;;;;75.18;28.75;;;6.00;99.90;;;;;;5035648;28;20221;-79
2021/12/19 01:47:03;;;;;;;62.63;24.45;;;5.90;99.90;;;;;;5035232;28;20186;-79
2021/12/19 01:49:29;;;;;;;59.20;24.70;;;5.90;99.90;;;;;;5034843;28;20192;-80
2021/12/19 01:51:55;;;;;;;63.85;26.42;;;5.90;99.90;;;;;;5035102;28;20248;-79
2021/12/19 01:54:21;;;;;;;61.05;26.80;;;5.90;99.90;;;;;;5035327;28;20172;-79
2021/12/19 01:56:47;;;;;;;67.38;27.30;;;5.90;99.90;;;;;;5035448;28;20174;-79
2021/12/19 01:59:13;;;;;;;65.30;25.03;;;5.90;99.90;;;;;;5035162;28;20212;-79
2021/12/19 02:01:49;;;;;;;64.77;26.17;;;5.90;99.90;;;;;;5034994;28;20677;-80
2021/12/19 02:04:17;;;;;;;63.92;25.65;;;5.90;99.90;;;;;;5035165;28;20771;-79
2021/12/19 02:06:43;;;;;;;72.95;26.85;;;5.90;99.90;;;;;;5035324;28;20176;-80
2021/12/19 02:09:10;;;;;;;55.72;24.48;;;6.00;99.90;;;;;;5034887;28;20178;-81
2021/12/19 02:11:41;;;;;;;59.17;24.33;;;5.90;99.90;;;;;;5033363;28;20206;-79
2021/12/19 02:14:09;;;;;;;59.35;23.38;;;6.10;99.90;;;;;;5035229;28;20170;-79
2021/12/19 02:16:39;;;;;;;54.28;21.00;;;6.00;99.90;;;;;;5035112;28;20181;-79
2021/12/19 02:19:06;;;;;;;54.58;21.75;;;6.10;99.90;;;;;;5034275;28;20181;-84
2021/12/19 02:21:31;;;;;;;58.65;21.25;;;6.10;99.90;;;;;;5033182;28;20613;-80
2021/12/19 02:23:59;;;;;;;45.50;19.57;;;6.20;99.90;;;;;;5034560;28;20209;-79
2021/12/19 02:26:25;;;;;;;51.53;19.85;;;6.00;99.90;;;;;;5033415;28;20319;-80
2021/12/19 02:28:50;;;;;;;61.07;23.70;;;6.00;99.90;;;;;;5034576;28;20194;-79
2021/12/19 02:31:17;;;;;;;49.17;20.97;;;6.00;99.90;;;;;;5034197;28;20440;-79
2021/12/19 02:33:55;;;;;;;54.75;20.80;;;5.90;99.90;;;;;;5016896;28;20239;-79
2021/12/19 02:36:29;;;;;;;45.47;18.15;;;6.00;99.90;;;;;;5034429;28;20261;-80
2021/12/19 02:49:48;;;;;;;47.17;19.80;;;6.00;99.90;;;;;;5034150;28;20224;-78
2021/12/19 02:52:16;;;;;;;57.33;19.77;;;5.90;99.90;;;;;;5034046;28;20193;-80
2021/12/19 02:54:43;;;;;;;40.85;17.55;;;5.90;99.90;;;;;;5034073;28;20202;-80
2021/12/19 02:57:09;;;;;;;48.97;20.30;;;6.00;99.90;;;;;;5034101;28;20174;-80
2021/12/19 02:59:35;;;;;;;58.10;21.88;;;6.00;99.90;;;;;;5033657;28;20538;-80
2021/12/19 03:02:01;;;;;;;56.50;20.43;;;6.10;99.90;;;;;;5033840;28;20198;-81
2021/12/19 03:04:26;;;;;;;52.27;21.37;;;6.00;99.90;;;;;;5033908;28;20189;-81
2021/12/19 03:06:52;;;;;;;57.13;22.33;;;6.00;99.90;;;;;;5033849;28;20445;-80
2021/12/19 03:12:12;;;;;;;61.47;21.13;;;6.00;99.90;;;;;;5033942;28;20574;-80
2021/12/19 03:20:11;;;;;;;46.08;20.60;;;6.00;99.90;;;;;;5032389;28;20692;-81
2021/12/19 03:22:36;;;;;;;46.08;20.10;;;6.00;99.90;;;;;;5032316;28;20178;-81
2021/12/19 03:25:03;;;;;;;44.67;19.17;;;6.00;99.90;;;;;;5033523;28;20305;-80
2021/12/19 03:27:28;;;;;;;54.75;18.05;;;6.00;99.90;;;;;;5033594;28;20537;-80
2021/12/19 03:29:54;;;;;;;43.63;18.23;;;6.10;99.90;;;;;;5031990;28;20186;-80
2021/12/19 03:32:19;;;;;;;51.83;19.30;;;6.10;99.90;;;;;;5032147;28;20202;-82
2021/12/19 03:34:45;;;;;;;47.20;18.40;;;6.10;99.90;;;;;;5032071;28;20278;-80
2021/12/19 03:37:11;;;;;;;49.20;19.07;;;6.00;99.90;;;;;;5033470;28;20186;-80
2021/12/19 03:39:54;;;;;;;42.57;17.97;;;6.10;99.90;;;;;;5031889;28;20221;-81
2021/12/19 03:42:20;;;;;;;48.53;20.50;;;6.10;99.90;;;;;;5033214;28;20729;-80
2021/12/19 03:44:46;;;;;;;40.27;16.40;;;6.00;99.90;;;;;;5032079;28;20182;-80
2021/12/19 03:47:11;;;;;;;38.73;18.10;;;6.00;99.90;;;;;;5033171;28;20231;-80
2021/12/19 03:49:37;;;;;;;41.50;17.50;;;6.10;99.90;;;;;;5033001;28;20182;-81
2021/12/19 03:52:03;;;;;;;37.33;18.70;;;6.10;99.90;;;;;;5033149;28;20206;-79
2021/12/19 03:54:28;;;;;;;50.73;19.60;;;6.10;99.90;;;;;;5033197;28;20253;-79
2021/12/19 03:56:54;;;;;;;48.20;19.33;;;6.20;99.90;;;;;;5033120;28;20417;-79
2021/12/19 03:59:20;;;;;;;38.40;16.60;;;6.10;99.90;;;;;;5032848;28;20174;-79
2021/12/19 04:01:50;;;;;;;48.60;18.43;;;6.00;99.90;;;;;;5033226;28;20218;-79
2021/12/19 04:04:15;;;;;;;36.55;16.05;;;6.00;99.90;;;;;;5033527;28;20218;-79
2021/12/19 04:06:41;;;;;;;45.30;17.40;;;6.10;99.90;;;;;;5033051;28;20674;-79
2021/12/19 04:09:07;;;;;;;37.80;16.90;;;6.10;99.90;;;;;;5032999;28;20642;-80
2021/12/19 04:11:32;;;;;;;37.33;16.40;;;6.00;99.90;;;;;;5031466;28;20209;-78
2021/12/19 04:13:58;;;;;;;36.87;16.30;;;6.00;99.90;;;;;;5031855;28;20186;-79
2021/12/19 04:16:24;;;;;;;37.80;17.63;;;5.90;99.90;;;;;;5032984;28;20174;-79
2021/12/19 04:18:49;;;;;;;39.80;16.93;;;6.00;99.90;;;;;;5033097;28;20178;-78
2021/12/19 04:21:15;;;;;;;39.30;17.50;;;6.00;99.90;;;;;;5032948;28;20205;-80
2021/12/19 04:23:41;;;;;;;39.77;17.17;;;5.90;99.90;;;;;;5031802;28;20189;-79
2021/12/19 04:26:07;;;;;;;42.73;18.13;;;6.00;99.90;;;;;;5031804;28;20182;-80
2021/12/19 04:28:32;;;;;;;34.63;15.70;;;6.00;99.90;;;;;;5032959;28;20460;-79
2021/12/19 04:31:00;;;;;;;36.30;16.17;;;6.00;99.90;;;;;;5032459;28;20440;-79
2021/12/19 04:33:28;;;;;;;41.17;16.00;;;6.00;99.90;;;;;;5032981;28;20171;-80
2021/12/19 04:35:59;;;;;;;35.90;16.33;;;6.00;99.90;;;;;;5031783;28;20251;-79
2021/12/19 04:44:22;;;;;;;43.55;17.75;;;6.10;99.90;;;;;;5035950;28;20173;-79
2021/12/19 04:55:12;;;;;;;41.65;17.17;;;6.10;99.90;;;;;;5036455;28;20162;-79
2021/12/19 04:57:51;;;;;;;46.95;19.17;;;6.10;99.90;;;;;;5036239;28;20185;-80
2021/12/19 05:00:22;;;;;;;52.97;19.17;;;6.10;99.90;;;;;;5034956;28;20248;-79
2021/12/19 05:02:59;;;;;;;45.42;18.92;;;6.10;99.90;;;;;;5034989;28;20185;-80
2021/12/19 05:05:44;;;;;;;40.80;18.30;;;6.10;99.90;;;;;;5036354;28;20564;-79
2021/12/19 05:16:22;;;;;;;39.95;16.88;;;6.10;99.90;;;;;;5036048;28;20181;-80
2021/12/19 05:18:50;;;;;;;44.03;16.87;;;6.00;99.90;;;;;;5036054;28;20517;-78
2021/12/19 05:21:24;;;;;;;45.80;18.52;;;6.00;99.90;;;;;;5035408;28;20210;-79
2021/12/19 05:24:17;;;;;;;45.22;16.45;;;6.00;99.90;;;;;;5034696;28;20182;-80
2021/12/19 05:26:42;;;;;;;42.47;16.80;;;6.00;99.90;;;;;;5035672;28;20182;-79
2021/12/19 05:29:09;;;;;;;35.40;15.85;;;5.90;99.90;;;;;;5035758;28;20546;-79
2021/12/19 05:31:35;;;;;;;45.22;17.08;;;5.90;99.90;;;;;;5035367;28;20205;-79
2021/12/19 05:34:00;;;;;;;40.70;16.87;;;6.00;99.90;;;;;;5035742;28;20600;-79
2021/12/19 05:47:07;;;;;;;33.40;15.43;;;6.00;99.90;;;;;;5035583;28;20189;-80
2021/12/19 05:49:34;;;;;;;33.37;14.30;;;5.90;99.90;;;;;;5034883;28;20174;-79
2021/12/19 05:52:00;;;;;;;26.55;13.40;;;6.00;99.90;;;;;;5034652;28;20667;-78
2021/12/19 05:54:27;;;;;;;28.38;13.32;;;5.90;99.90;;;;;;5033307;28;20771;-79
2021/12/19 05:56:52;;;;;;;28.77;13.07;;;5.90;99.90;;;;;;5035323;28;20182;-79
2021/12/19 05:59:18;;;;;;;24.27;11.40;;;5.90;99.90;;;;;;5034000;28;20265;-79
2021/12/19 06:01:46;;;;;;;25.88;13.38;;;6.00;99.90;;;;;;5035205;28;20206;-79
2021/12/19 06:04:12;;;;;;;25.23;12.18;;;6.00;99.90;;;;;;5035092;28;20165;-79
2021/12/19 06:06:38;;;;;;;24.95;12.75;;;6.10;99.90;;;;;;5035019;28;20274;-78
2021/12/19 06:09:05;;;;;;;29.50;13.20;;;6.10;99.90;;;;;;5035063;28;20198;-79
2021/12/19 06:11:31;;;;;;;28.58;13.30;;;6.10;99.90;;;;;;5033501;28;20598;-79
2021/12/19 06:13:57;;;;;;;29.00;11.20;;;6.10;99.90;;;;;;5034817;28;20575;-79
2021/12/19 06:16:22;;;;;;;25.47;11.57;;;6.10;99.90;;;;;;5034784;28;20182;-79
2021/12/19 06:18:48;;;;;;;30.00;12.37;;;6.20;99.90;;;;;;5034755;28;20182;-79
2021/12/19 06:21:14;;;;;;;32.77;14.07;;;6.20;99.90;;;;;;5033203;28;20214;-79
2021/12/19 06:23:39;;;;;;;26.67;12.90;;;6.20;99.90;;;;;;5033435;28;20179;-78
2021/12/19 06:26:10;;;;;;;29.13;13.07;;;6.10;99.90;;;;;;5034699;28;20695;-79
2021/12/19 06:28:36;;;;;;;34.08;13.45;;;6.10;99.90;;;;;;5034595;28;20561;-79
2021/12/19 06:31:01;;;;;;;33.37;13.63;;;6.10;99.90;;;;;;5034206;28;20197;-78
2021/12/19 06:33:27;;;;;;;27.33;13.40;;;6.10;99.90;;;;;;5034723;28;20883;-79
2021/12/19 06:35:53;;;;;;;35.50;14.50;;;6.10;99.90;;;;;;5033401;28;20452;-78
2021/12/19 06:38:18;;;;;;;34.27;15.00;;;6.10;99.90;;;;;;5034385;28;20265;-79
2021/12/19 06:40:44;;;;;;;30.63;14.03;;;6.10;99.90;;;;;;5032662;28;20218;-82
2021/12/19 06:43:10;;;;;;;27.37;13.87;;;6.10;99.90;;;;;;5034306;28;20170;-79
2021/12/19 06:45:35;;;;;;;36.60;15.43;;;6.10;99.90;;;;;;5032978;28;20212;-78
2021/12/19 06:48:01;;;;;;;27.67;14.50;;;6.10;99.90;;;;;;5032698;28;20440;-79
2021/12/19 06:50:27;;;;;;;33.40;14.80;;;6.10;99.90;;;;;;5033862;28;20332;-80
2021/12/19 06:52:53;;;;;;;32.47;15.13;;;6.10;99.90;;;;;;5033026;28;20422;-79
2021/12/19 06:55:19;;;;;;;31.20;15.53;;;6.10;99.90;;;;;;5032995;28;20253;-79
2021/12/19 06:57:45;;;;;;;36.50;14.88;;;6.10;99.90;;;;;;5034288;28;20184;-81
2021/12/19 07:00:14;;;;;;;33.08;14.60;;;6.20;99.90;;;;;;5032388;28;20213;-82
2021/12/19 07:02:40;;;;;;;28.15;14.15;;;6.20;99.90;;;;;;5034109;28;20202;-82
2021/12/19 07:05:06;;;;;;;32.47;15.30;;;6.10;99.90;;;;;;5033610;28;20375;-81
2021/12/19 07:07:32;;;;;;;28.60;12.80;;;6.20;99.90;;;;;;5034061;28;20605;-79
2021/12/19 07:09:58;;;;;;;29.97;14.17;;;6.10;99.90;;;;;;5033605;28;20257;-81
2021/12/19 07:12:27;;;;;;;34.67;15.20;;;6.20;99.90;;;;;;5033811;28;20186;-81
2021/12/19 07:14:54;;;;;;;28.63;13.80;;;6.10;99.90;;;;;;5034125;28;20179;-81
2021/12/19 07:17:20;;;;;;;22.25;13.40;;;6.20;99.90;;;;;;5033696;28;20253;-80
2021/12/19 07:19:46;;;;;;;30.80;12.53;;;6.20;99.90;;;;;;5033394;28;20261;-80
2021/12/19 07:22:12;;;;;;;30.53;12.90;;;6.10;99.90;;;;;;5032261;28;20465;-80
2021/12/19 07:24:37;;;;;;;28.80;12.73;;;6.20;99.90;;;;;;5032409;28;20419;-80
2021/12/19 07:27:03;;;;;;;34.90;13.93;;;6.10;99.90;;;;;;5033695;28;20182;-80
2021/12/19 07:29:30;;;;;;;31.43;13.40;;;6.20;99.90;;;;;;5033362;28;20184;-81
2021/12/19 07:31:56;;;;;;;32.72;13.35;;;6.10;99.90;;;;;;5033471;28;20528;-80
2021/12/19 07:34:29;;;;;;;37.53;12.65;;;6.10;99.90;;;;;;5032185;28;20246;-80
2021/12/19 07:36:55;;;;;;;24.85;12.25;;;6.20;99.90;;;;;;5033432;28;20209;-80
2021/12/19 07:39:37;;;;;;;27.43;14.50;;;6.20;99.90;;;;;;5033235;28;20208;-80
2021/12/19 07:42:06;;;;;;;37.10;15.98;;;6.20;99.90;;;;;;5033126;28;20542;-80
2021/12/19 07:44:32;;;;;;;28.40;13.82;;;6.20;99.90;;;;;;5033176;28;20188;-81
2021/12/19 07:46:57;;;;;;;24.00;11.35;;;6.10;99.90;;;;;;5033221;28;20182;-80
2021/12/19 07:49:23;;;;;;;26.90;12.00;;;6.20;99.90;;;;;;5033188;28;20546;-80
2021/12/19 07:51:48;;;;;;;31.80;12.93;;;6.20;99.90;;;;;;5033156;28;20236;-80
2021/12/19 07:54:14;;;;;;;24.67;11.00;;;6.20;99.90;;;;;;5033152;28;20260;-80
2021/12/19 07:56:40;;;;;;;25.50;13.20;;;6.20;99.90;;;;;;5033172;28;20197;-80
2021/12/19 07:59:06;;;;;;;36.37;12.63;;;6.20;99.90;;;;;;5031872;28;20184;-81
2021/12/19 08:01:32;;;;;;;30.52;12.30;;;6.10;99.90;;;;;;5033014;28;20202;-80
2021/12/19 08:03:58;;;;;;;28.17;12.27;;;6.10;99.90;;;;;;5032757;28;20518;-79
2021/12/19 08:06:24;;;;;;;27.00;11.53;;;6.20;99.90;;;;;;5038600;28;20222;-80
2021/12/19 08:08:53;;;;;;;29.77;10.80;;;6.20;99.90;;;;;;5032983;28;20285;-80
2021/12/19 08:14:03;;;;;;;21.80;10.35;;;6.10;99.90;;;;;;5033380;28;20271;-80
2021/12/19 08:16:29;;;;;;;30.07;11.33;;;6.10;99.90;;;;;;5016976;28;20213;-80
2021/12/19 08:18:55;;;;;;;29.17;11.00;;;6.10;99.90;;;;;;5037093;28;20182;-80
2021/12/19 08:21:20;;;;;;;24.53;10.13;;;6.10;99.90;;;;;;5036652;28;20211;-80
2021/12/19 08:23:46;;;;;;;20.27;8.00;;;6.10;99.90;;;;;;5035912;28;20708;-80
2021/12/19 08:26:12;;;;;;;23.48;8.70;;;6.20;99.90;;;;;;5035674;28;20253;-81
2021/12/19 08:28:39;;;;;;;18.10;8.23;;;6.20;99.90;;;;;;5037004;28;20182;-81
2021/12/19 08:31:04;;;;;;;21.95;8.85;;;6.10;99.90;;;;;;5036492;28;20201;-81
2021/12/19 08:33:30;;;;;;;20.47;7.77;;;6.10;99.90;;;;;;5036807;28;20182;-80
2021/12/19 08:35:59;;;;;;;19.20;9.60;;;6.10;99.90;;;;;;5036702;28;20458;-80
2021/12/19 08:38:25;;;;;;;21.70;9.20;;;6.10;99.90;;;;;;5036732;28;20935;-81
2021/12/19 08:40:51;;;;;;;19.55;9.82;;;6.00;99.90;;;;;;5036134;28;20561;-80
2021/12/19 08:43:18;;;;;;;24.75;9.25;;;6.00;99.90;;;;;;5036832;28;20699;-80
2021/12/19 08:45:44;;;;;;;21.77;9.55;;;6.10;99.90;;;;;;5036668;28;20657;-80
2021/12/19 08:48:10;;;;;;;25.63;11.20;;;6.10;99.90;;;;;;5036567;28;20189;-80
2021/12/19 08:50:36;;;;;;;23.97;11.30;;;6.10;99.90;;;;;;5036145;28;20436;-80
2021/12/19 08:53:02;;;;;;;19.33;10.77;;;6.10;99.90;;;;;;5036366;28;20185;-80
2021/12/19 08:55:27;;;;;;;22.95;11.52;;;6.00;99.90;;;;;;5036678;28;20174;-80
2021/12/19 08:57:53;;;;;;;29.70;12.43;;;6.00;99.90;;;;;;5035119;28;20193;-80
2021/12/19 09:00:19;;;;;;;26.73;11.50;;;6.10;99.90;;;;;;5035880;28;20308;-80
2021/12/19 09:02:49;;;;;;;15.13;7.60;;;6.10;99.90;;;;;;5036408;28;20597;-80
2021/12/19 09:05:15;;;;;;;20.55;9.32;;;5.90;99.90;;;;;;5036086;28;20176;-79
2021/12/19 09:07:40;;;;;;;18.63;7.87;;;6.00;99.90;;;;;;5036335;28;20257;-80
2021/12/19 09:10:07;;;;;;;16.50;7.07;;;6.00;99.90;;;;;;5035714;28;20269;-79
2021/12/19 09:12:33;;;;;;;17.10;7.63;;;6.00;99.90;;;;;;5036001;28;20182;-80
2021/12/19 09:14:59;;;;;;;13.17;7.20;;;6.00;99.90;;;;;;5034928;28;20251;-80
2021/12/19 09:17:24;;;;;;;15.90;6.83;;;6.00;99.90;;;;;;5036111;28;20190;-80
2021/12/19 09:19:51;;;;;;;13.13;6.70;;;6.00;99.90;;;;;;5034627;28;20670;-79
2021/12/19 09:22:17;;;;;;;12.27;5.75;;;6.10;99.90;;;;;;5035905;28;20197;-80
2021/12/19 09:24:43;;;;;;;12.35;6.40;;;6.10;99.90;;;;;;5036049;28;20171;-80
2021/12/19 09:27:09;;;;;;;11.70;5.03;;;6.20;99.90;;;;;;5034429;28;20670;-79
2021/12/19 09:29:35;;;;;;;11.80;6.28;;;6.20;99.90;;;;;;5034301;28;20210;-80
2021/12/19 09:32:01;;;;;;;11.75;5.35;;;6.10;99.90;;;;;;5035926;28;20209;-80
2021/12/19 09:34:28;;;;;;;10.73;5.07;;;6.10;99.90;;;;;;5035864;28;20174;-81
2021/12/19 09:36:55;;;;;;;8.98;4.78;;;6.20;99.90;;;;;;5034454;28;20265;-80
2021/12/19 09:39:21;;;;;;;10.85;4.80;;;6.20;99.90;;;;;;5033848;28;20185;-80
2021/12/19 09:41:51;;;;;;;9.00;4.93;;;6.20;99.90;;;;;;5034091;28;20701;-80
2021/12/19 09:44:17;;;;;;;8.30;4.25;;;6.10;99.90;;;;;;5035480;28;20255;-80
2021/12/19 09:46:44;;;;;;;10.80;5.20;;;6.10;99.90;;;;;;5035330;28;20217;-80
2021/12/19 09:49:13;;;;;;;13.27;5.18;;;6.20;99.90;;;;;;5035187;28;20426;-80
2021/12/19 09:51:39;;;;;;;7.32;4.40;;;6.20;99.90;;;;;;5035238;28;20270;-81
2021/12/19 09:54:07;;;;;;;8.48;4.43;;;6.20;99.90;;;;;;5035602;28;20240;-80
2021/12/19 09:56:34;;;;;;;8.02;5.00;;;6.30;99.90;;;;;;5035484;28;20206;-80
2021/12/19 09:59:07;;;;;;;8.07;4.60;;;6.30;99.90;;;;;;5035472;28;20174;-80
2021/12/19 10:01:33;;;;;;;7.28;4.45;;;6.20;99.90;;;;;;5034768;28;20221;-79
2021/12/19 10:03:58;;;;;;;6.23;3.77;;;6.20;99.90;;;;;;5033879;28;20258;-80
2021/12/19 10:06:27;;;;;;;8.67;5.77;;;6.10;99.90;;;;;;5035223;28;20205;-80
2021/12/19 10:09:12;;;;;;;8.27;3.97;;;6.20;99.90;;;;;;5035070;28;20409;-80
2021/12/19 10:14:28;;;;;;;6.40;3.70;;;6.20;99.90;;;;;;5035068;28;20175;-80
2021/12/19 10:16:55;;;;;;;7.20;4.10;;;6.30;99.90;;;;;;5034774;28;20717;-80
2021/12/19 10:19:21;;;;;;;11.10;5.88;;;6.30;99.90;;;;;;5034553;28;20182;-80
2021/12/19 10:21:47;;;;;;;7.70;4.50;;;6.20;99.90;;;;;;5034735;28;20210;-80
2021/12/19 10:24:30;;;;;;;12.00;4.83;;;6.30;99.90;;;;;;5033513;28;20425;-80
2021/12/19 10:26:55;;;;;;;12.20;4.70;;;6.30;99.90;;;;;;5034734;28;20186;-80
2021/12/19 10:29:41;;;;;;;13.30;5.63;;;6.30;99.90;;;;;;5033042;28;20181;-80
2021/12/19 10:32:07;;;;;;;11.20;5.53;;;6.30;99.90;;;;;;5034678;28;20498;-80
2021/12/19 10:34:32;;;;;;;12.50;6.53;;;6.40;99.90;;;;;;5033561;28;20186;-80
2021/12/19 10:36:58;;;;;;;13.93;5.60;;;6.40;99.90;;;;;;5034703;28;20410;-80
2021/12/19 10:39:26;;;;;;;11.37;6.60;;;6.30;99.90;;;;;;5033588;28;20182;-81
2021/12/19 10:42:00;;;;;;;12.45;7.20;;;6.30;99.90;;;;;;5032985;28;20213;-80
2021/12/19 10:47:25;;;;;;;12.27;6.70;;;6.30;99.90;;;;;;5034481;28;20197;-79
2021/12/19 10:49:52;;;;;;;16.65;7.38;;;6.30;99.90;;;;;;5033945;28;20505;-79
2021/12/19 10:52:36;;;;;;;11.77;6.05;;;6.30;99.90;;;;;;5032833;28;20293;-79
2021/12/19 10:55:05;;;;;;;20.25;5.57;;;6.30;99.90;;;;;;5034227;28;20174;-79
2021/12/19 10:57:34;;;;;;;13.70;5.45;;;6.40;99.90;;;;;;5034292;28;20178;-80
2021/12/19 11:00:01;;;;;;;10.27;5.47;;;6.40;99.90;;;;;;5033632;28;20710;-80
2021/12/19 11:02:39;;;;;;;11.10;5.00;;;6.40;99.90;;;;;;5034192;28;20179;-81
2021/12/19 11:05:06;;;;;;;12.52;5.22;;;6.40;99.90;;;;;;5033984;28;20233;-80
2021/12/19 11:07:31;;;;;;;8.02;5.35;;;6.30;99.90;;;;;;5034046;28;20178;-79
2021/12/19 11:09:57;;;;;;;14.80;5.40;;;6.40;99.90;;;;;;5032411;28;20239;-79
2021/12/19 11:12:23;;;;;;;8.67;4.30;;;6.40;99.90;;;;;;5034116;28;20194;-80
2021/12/19 11:14:49;;;;;;;11.37;6.00;;;6.40;99.90;;;;;;5033178;28;20187;-80
2021/12/19 11:17:21;;;;;;;12.70;5.80;;;6.40;99.90;;;;;;5033458;28;20178;-79
2021/12/19 11:19:53;;;;;;;12.50;5.05;;;6.40;99.90;;;;;;5032000;28;20823;-80
2021/12/19 11:22:25;;;;;;;11.55;5.30;;;6.30;99.90;;;;;;5033749;28;20206;-79
2021/12/19 11:24:58;;;;;;;7.03;4.15;;;6.40;99.90;;;;;;5032610;28;20204;-79
2021/12/19 11:27:26;;;;;;;6.10;4.13;;;6.40;99.90;;;;;;5032417;28;20180;-79
2021/12/19 11:29:53;;;;;;;10.55;5.47;;;6.40;99.90;;;;;;5032001;28;20194;-79
2021/12/19 11:32:24;;;;;;;9.25;5.28;;;6.50;99.90;;;;;;5032084;28;20203;-79
2021/12/19 11:34:50;;;;;;;9.85;5.50;;;6.50;99.90;;;;;;5032194;28;20193;-79
2021/12/19 11:37:23;;;;;;;14.60;6.43;;;6.50;99.90;;;;;;5033477;28;20174;-79
2021/12/19 11:39:52;;;;;;;11.13;4.80;;;6.50;99.90;;;;;;5033352;28;20170;-79
2021/12/19 11:42:31;;;;;;;9.88;4.38;;;6.50;99.90;;;;;;5033760;28;20201;-79
2021/12/19 11:47:53;;;;;;;10.57;5.13;;;6.50;99.90;;;;;;5034868;28;20186;-80
2021/12/19 11:50:51;;;;;;;11.85;5.68;;;6.50;99.90;;;;;;5029873;28;20190;-80
2021/12/19 11:53:17;;;;;;;8.10;4.40;;;6.50;99.90;;;;;;5027524;28;20249;-80
2021/12/19 11:55:48;;;;;;;9.27;3.83;;;6.50;99.90;;;;;;5035720;28;20177;-79
2021/12/19 11:58:20;;;;;;;12.15;5.18;;;6.50;99.90;;;;;;5034155;28;20650;-79
2021/12/19 12:00:50;;;;;;;10.40;4.47;;;6.60;99.90;;;;;;5033623;28;20761;-78
2021/12/19 12:03:15;;;;;;;12.93;5.50;;;6.60;99.90;;;;;;5037013;28;20522;-80
2021/12/19 12:05:52;;;;;;;12.03;4.40;;;6.50;99.90;;;;;;5034691;28;20309;-80
2021/12/19 12:08:23;;;;;;;9.73;4.50;;;6.60;99.90;;;;;;5035055;28;20167;-80
2021/12/19 12:13:32;;;;;;;8.90;5.60;;;6.50;99.90;;;;;;5036371;28;20190;-79
2021/12/19 12:18:42;;;;;;;13.10;6.00;;;6.60;99.90;;;;;;5034664;28;20174;-80
2021/12/19 12:21:29;;;;;;;12.48;5.82;;;6.60;99.90;;;;;;5032780;28;20563;-80
2021/12/19 12:24:06;;;;;;;12.65;5.60;;;6.60;99.90;;;;;;5035020;28;20170;-80
2021/12/19 12:26:43;;;;;;;10.82;6.00;;;6.60;99.90;;;;;;5035389;28;20192;-81
2021/12/19 12:29:09;;;;;;;12.25;6.65;;;6.60;99.90;;;;;;5125647;22;20237;-81
2021/12/19 12:31:35;;;;;;;8.88;6.80;;;6.70;99.90;;;;;;5015749;28;20190;-80
2021/12/19 12:34:03;;;;;;;6.45;4.22;;;6.60;99.90;;;;;;5014586;28;20274;-80
2021/12/19 12:36:29;;;;;;;9.13;5.60;;;6.60;99.90;;;;;;5013546;28;20168;-80
2021/12/19 12:38:55;;;;;;;8.43;5.55;;;6.60;99.90;;;;;;5029413;28;20262;-80
2021/12/19 12:41:39;;;;;;;8.65;5.90;;;6.50;99.90;;;;;;5012561;28;20202;-80
2021/12/19 12:44:17;;;;;;;9.75;6.40;;;6.50;99.90;;;;;;5012900;28;20231;-81
2021/12/19 12:46:43;;;;;;;9.93;6.43;;;6.50;99.90;;;;;;5012984;28;20178;-80
2021/12/19 12:49:14;;;;;;;12.50;7.53;;;6.50;99.90;;;;;;5012888;28;20175;-80
2021/12/19 12:51:49;;;;;;;13.15;7.72;;;6.50;99.90;;;;;;5011604;28;20205;-81
2021/12/19 12:54:17;;;;;;;9.25;7.30;;;6.60;99.90;;;;;;5012916;28;20215;-80
2021/12/19 12:56:58;;;;;;;9.80;7.15;;;6.60;99.90;;;;;;5012755;28;20631;-80
2021/12/19 12:59:32;;;;;;;12.32;7.10;;;6.60;99.90;;;;;;5012547;28;20552;-79
2021/12/19 13:02:28;;;;;;;12.45;7.20;;;6.60;99.90;;;;;;5013559;28;20210;-82
2021/12/19 13:04:53;;;;;;;10.85;8.23;;;6.60;99.90;;;;;;5016465;28;20183;-80
2021/12/19 13:07:20;;;;;;;10.52;7.55;;;6.70;99.90;;;;;;5015188;28;20668;-80
2021/12/19 13:09:57;;;;;;;11.23;8.38;;;6.60;99.90;;;;;;5014813;28;20234;-80
2021/12/19 13:12:30;;;;;;;13.13;8.70;;;6.70;99.90;;;;;;5016570;28;20674;-80
2021/12/19 13:15:00;;;;;;;14.48;8.15;;;6.60;99.90;;;;;;5016359;28;20181;-80
2021/12/19 13:17:29;;;;;;;14.43;8.73;;;6.60;99.90;;;;;;5015232;28;20516;-81
2021/12/19 13:20:04;;;;;;;10.75;8.80;;;6.60;99.90;;;;;;5015911;28;20227;-81
2021/12/19 13:22:47;;;;;;;12.80;8.60;;;6.60;99.90;;;;;;5016243;28;20226;-80
2021/12/19 13:25:21;;;;;;;14.63;9.07;;;6.70;99.90;;;;;;5016290;28;20166;-80
2021/12/19 13:28:01;;;;;;;11.15;7.07;;;6.60;99.90;;;;;;5015775;28;20225;-80
2021/12/19 13:30:46;;;;;;;15.52;9.48;;;6.70;99.90;;;;;;5029861;28;20210;-81
2021/12/19 13:33:14;;;;;;;12.40;8.63;;;6.60;99.90;;;;;;5016036;28;20548;-80
2021/12/19 13:35:54;;;;;;;14.82;8.35;;;6.60;99.90;;;;;;5016125;28;20259;-79
2021/12/19 13:38:24;;;;;;;11.35;8.85;;;6.60;99.90;;;;;;5015962;28;20202;-79
2021/12/19 13:41:04;;;;;;;14.23;8.15;;;6.60;99.90;;;;;;5015538;28;20219;-81
2021/12/19 13:43:35;;;;;;;12.93;8.95;;;6.60;99.90;;;;;;5015751;28;20167;-79
2021/12/19 13:46:13;;;;;;;11.43;8.25;;;6.60;99.90;;;;;;5015618;28;20171;-79
2021/12/19 13:48:49;;;;;;;12.77;8.55;;;6.60;99.90;;;;;;5014345;28;20202;-79
2021/12/19 13:51:21;;;;;;;16.08;9.85;;;6.60;99.90;;;;;;5015166;28;20207;-79
2021/12/19 13:53:55;;;;;;;14.57;8.95;;;6.60;99.90;;;;;;5015453;28;20178;-79
2021/12/19 13:56:28;;;;;;;13.30;7.55;;;6.60;99.90;;;;;;5015547;28;20194;-81
2021/12/19 13:59:00;;;;;;;15.55;8.98;;;6.60;99.90;;;;;;5015359;28;20179;-80
2021/12/19 14:01:33;;;;;;;15.93;8.48;;;6.70;99.90;;;;;;5013627;28;20278;-80
2021/12/19 14:04:14;;;;;;;12.40;7.45;;;6.70;99.90;;;;;;5015266;28;20485;-81